sensor_id;sensor_type;location;lat;lon;timestamp;P1;durP1;ratioP1;P2;durP2;ratioP2
72649;SDS011;61467;50.674;4.618;2022-11-14T00:00:29;18.83;;;10.35;;
72649;SDS011;61467;50.674;4.618;2022-11-14T00:02:58;20.65;;;10.88;;
72649;SDS011;61467;50.674;4.618;2022-11-14T00:05:25;19.80;;;10.67;;
72649;SDS011;61467;50.674;4.618;2022-11-14T00:07:52;16.92;;;10.73;;
72649;SDS011;61467;50.674;4.618;2022-11-14T00:10:19;18.05;;;10.85;;
72649;SDS011;61467;50.674;4.618;2022-11-14T00:12:47;18.13;;;10.60;;
72649;SDS011;61467;50.674;4.618;2022-11-14T00:15:14;16.10;;;9.88;;
72649;SDS011;61467;50.674;4.618;2022-11-14T00:17:41;18.07;;;10.63;;
72649;SDS011;61467;50.674;4.618;2022-11-14T00:20:09;17.38;;;9.90;;
72649;SDS011;61467;50.674;4.618;2022-11-14T00:22:37;15.07;;;9.43;;
72649;SDS011;61467;50.674;4.618;2022-11-14T00:25:04;18.17;;;10.07;;
72649;SDS011;61467;50.674;4.618;2022-11-14T00:27:31;16.17;;;9.75;;
72649;SDS011;61467;50.674;4.618;2022-11-14T00:29:59;15.97;;;9.13;;
72649;SDS011;61467;50.674;4.618;2022-11-14T00:32:25;16.13;;;9.63;;
72649;SDS011;61467;50.674;4.618;2022-11-14T00:34:52;15.00;;;9.13;;
72649;SDS011;61467;50.674;4.618;2022-11-14T00:37:19;14.88;;;9.02;;
72649;SDS011;61467;50.674;4.618;2022-11-14T00:39:45;15.23;;;9.60;;
72649;SDS011;61467;50.674;4.618;2022-11-14T00:42:12;14.13;;;8.87;;
72649;SDS011;61467;50.674;4.618;2022-11-14T00:44:38;15.80;;;9.32;;
72649;SDS011;61467;50.674;4.618;2022-11-14T00:47:06;16.35;;;9.05;;
72649;SDS011;61467;50.674;4.618;2022-11-14T00:49:33;15.30;;;8.63;;
72649;SDS011;61467;50.674;4.618;2022-11-14T00:52:00;18.30;;;9.48;;
72649;SDS011;61467;50.674;4.618;2022-11-14T00:54:26;13.70;;;8.53;;
72649;SDS011;61467;50.674;4.618;2022-11-14T00:56:53;14.88;;;8.10;;
72649;SDS011;61467;50.674;4.618;2022-11-14T00:59:21;17.20;;;9.07;;
72649;SDS011;61467;50.674;4.618;2022-11-14T01:01:48;13.90;;;8.38;;
72649;SDS011;61467;50.674;4.618;2022-11-14T01:04:16;15.10;;;7.85;;
72649;SDS011;61467;50.674;4.618;2022-11-14T01:06:42;13.43;;;7.70;;
72649;SDS011;61467;50.674;4.618;2022-11-14T01:09:09;12.13;;;7.05;;
72649;SDS011;61467;50.674;4.618;2022-11-14T01:11:36;13.85;;;7.45;;
72649;SDS011;61467;50.674;4.618;2022-11-14T01:14:04;13.77;;;7.30;;
72649;SDS011;61467;50.674;4.618;2022-11-14T01:16:32;12.55;;;7.40;;
72649;SDS011;61467;50.674;4.618;2022-11-14T01:19:00;14.33;;;6.87;;
72649;SDS011;61467;50.674;4.618;2022-11-14T01:21:28;13.20;;;7.03;;
72649;SDS011;61467;50.674;4.618;2022-11-14T01:23:54;12.18;;;6.80;;
72649;SDS011;61467;50.674;4.618;2022-11-14T01:26:21;21.40;;;7.22;;
72649;SDS011;61467;50.674;4.618;2022-11-14T01:28:48;14.10;;;7.85;;
72649;SDS011;61467;50.674;4.618;2022-11-14T01:31:15;12.50;;;6.10;;
72649;SDS011;61467;50.674;4.618;2022-11-14T01:33:43;12.05;;;6.30;;
72649;SDS011;61467;50.674;4.618;2022-11-14T01:36:10;11.73;;;6.57;;
72649;SDS011;61467;50.674;4.618;2022-11-14T01:38:38;13.80;;;6.82;;
72649;SDS011;61467;50.674;4.618;2022-11-14T01:41:05;11.10;;;5.97;;
72649;SDS011;61467;50.674;4.618;2022-11-14T01:43:32;11.40;;;5.90;;
72649;SDS011;61467;50.674;4.618;2022-11-14T01:46:01;10.63;;;6.22;;
72649;SDS011;61467;50.674;4.618;2022-11-14T01:48:31;12.25;;;6.60;;
72649;SDS011;61467;50.674;4.618;2022-11-14T01:51:04;10.73;;;5.80;;
72649;SDS011;61467;50.674;4.618;2022-11-14T01:53:41;11.48;;;6.43;;
72649;SDS011;61467;50.674;4.618;2022-11-14T01:56:10;12.67;;;6.60;;
72649;SDS011;61467;50.674;4.618;2022-11-14T01:58:41;12.02;;;6.28;;
72649;SDS011;61467;50.674;4.618;2022-11-14T02:01:12;11.43;;;6.28;;
72649;SDS011;61467;50.674;4.618;2022-11-14T02:03:39;11.27;;;5.93;;
72649;SDS011;61467;50.674;4.618;2022-11-14T02:06:09;10.52;;;6.05;;
72649;SDS011;61467;50.674;4.618;2022-11-14T02:08:39;10.93;;;5.97;;
72649;SDS011;61467;50.674;4.618;2022-11-14T02:11:09;11.43;;;5.63;;
72649;SDS011;61467;50.674;4.618;2022-11-14T02:13:36;9.80;;;5.55;;
72649;SDS011;61467;50.674;4.618;2022-11-14T02:16:03;10.85;;;5.43;;
72649;SDS011;61467;50.674;4.618;2022-11-14T02:18:30;11.38;;;5.90;;
72649;SDS011;61467;50.674;4.618;2022-11-14T02:20:58;13.00;;;5.33;;
72649;SDS011;61467;50.674;4.618;2022-11-14T02:23:25;11.93;;;5.45;;
72649;SDS011;61467;50.674;4.618;2022-11-14T02:25:53;10.88;;;5.47;;
72649;SDS011;61467;50.674;4.618;2022-11-14T02:28:20;10.43;;;5.43;;
72649;SDS011;61467;50.674;4.618;2022-11-14T02:30:47;10.30;;;5.07;;
72649;SDS011;61467;50.674;4.618;2022-11-14T02:33:14;10.87;;;5.00;;
72649;SDS011;61467;50.674;4.618;2022-11-14T02:35:41;16.48;;;5.70;;
72649;SDS011;61467;50.674;4.618;2022-11-14T02:38:09;10.40;;;5.05;;
72649;SDS011;61467;50.674;4.618;2022-11-14T02:40:36;9.18;;;4.80;;
72649;SDS011;61467;50.674;4.618;2022-11-14T02:43:02;9.93;;;5.53;;
72649;SDS011;61467;50.674;4.618;2022-11-14T02:45:30;10.03;;;4.60;;
72649;SDS011;61467;50.674;4.618;2022-11-14T02:47:56;9.10;;;4.75;;
72649;SDS011;61467;50.674;4.618;2022-11-14T02:50:23;9.32;;;4.93;;
72649;SDS011;61467;50.674;4.618;2022-11-14T02:52:49;9.07;;;4.20;;
72649;SDS011;61467;50.674;4.618;2022-11-14T02:55:19;12.07;;;5.05;;
72649;SDS011;61467;50.674;4.618;2022-11-14T02:57:46;11.03;;;4.80;;
72649;SDS011;61467;50.674;4.618;2022-11-14T03:00:13;9.88;;;5.10;;
72649;SDS011;61467;50.674;4.618;2022-11-14T03:02:40;10.00;;;5.15;;
72649;SDS011;61467;50.674;4.618;2022-11-14T03:05:06;8.80;;;4.32;;
72649;SDS011;61467;50.674;4.618;2022-11-14T03:07:33;9.98;;;4.50;;
72649;SDS011;61467;50.674;4.618;2022-11-14T03:10:00;11.07;;;5.37;;
72649;SDS011;61467;50.674;4.618;2022-11-14T03:12:28;9.18;;;4.60;;
72649;SDS011;61467;50.674;4.618;2022-11-14T03:14:55;10.32;;;4.88;;
72649;SDS011;61467;50.674;4.618;2022-11-14T03:17:22;10.30;;;4.75;;
72649;SDS011;61467;50.674;4.618;2022-11-14T03:19:49;8.75;;;5.00;;
72649;SDS011;61467;50.674;4.618;2022-11-14T03:22:16;8.80;;;4.83;;
72649;SDS011;61467;50.674;4.618;2022-11-14T03:24:44;9.50;;;4.82;;
72649;SDS011;61467;50.674;4.618;2022-11-14T03:27:11;9.63;;;4.70;;
72649;SDS011;61467;50.674;4.618;2022-11-14T03:29:39;8.57;;;4.35;;
72649;SDS011;61467;50.674;4.618;2022-11-14T03:32:05;10.40;;;4.80;;
72649;SDS011;61467;50.674;4.618;2022-11-14T03:34:32;9.80;;;4.40;;
72649;SDS011;61467;50.674;4.618;2022-11-14T03:36:59;10.02;;;4.80;;
72649;SDS011;61467;50.674;4.618;2022-11-14T03:39:26;11.13;;;4.68;;
72649;SDS011;61467;50.674;4.618;2022-11-14T03:41:53;9.40;;;5.00;;
72649;SDS011;61467;50.674;4.618;2022-11-14T03:44:19;9.75;;;5.05;;
72649;SDS011;61467;50.674;4.618;2022-11-14T03:46:47;9.50;;;4.67;;
72649;SDS011;61467;50.674;4.618;2022-11-14T03:49:14;9.23;;;4.53;;
72649;SDS011;61467;50.674;4.618;2022-11-14T03:51:41;10.88;;;4.60;;
72649;SDS011;61467;50.674;4.618;2022-11-14T03:54:07;8.75;;;4.28;;
72649;SDS011;61467;50.674;4.618;2022-11-14T03:56:34;9.13;;;4.40;;
72649;SDS011;61467;50.674;4.618;2022-11-14T03:59:01;8.80;;;4.50;;
72649;SDS011;61467;50.674;4.618;2022-11-14T04:01:28;9.52;;;4.78;;
72649;SDS011;61467;50.674;4.618;2022-11-14T04:03:56;10.02;;;4.95;;
72649;SDS011;61467;50.674;4.618;2022-11-14T04:06:23;9.32;;;4.50;;
72649;SDS011;61467;50.674;4.618;2022-11-14T04:08:49;8.82;;;4.80;;
72649;SDS011;61467;50.674;4.618;2022-11-14T04:11:16;9.80;;;4.73;;
72649;SDS011;61467;50.674;4.618;2022-11-14T04:13:43;9.27;;;4.63;;
72649;SDS011;61467;50.674;4.618;2022-11-14T04:16:10;9.32;;;4.45;;
72649;SDS011;61467;50.674;4.618;2022-11-14T04:18:36;9.27;;;4.30;;
72649;SDS011;61467;50.674;4.618;2022-11-14T04:21:04;8.43;;;4.18;;
72649;SDS011;61467;50.674;4.618;2022-11-14T04:23:31;8.27;;;4.20;;
72649;SDS011;61467;50.674;4.618;2022-11-14T04:25:58;8.13;;;4.15;;
72649;SDS011;61467;50.674;4.618;2022-11-14T04:28:24;8.40;;;4.05;;
72649;SDS011;61467;50.674;4.618;2022-11-14T04:30:51;8.68;;;4.10;;
72649;SDS011;61467;50.674;4.618;2022-11-14T04:33:18;9.00;;;4.20;;
72649;SDS011;61467;50.674;4.618;2022-11-14T04:35:45;10.73;;;4.47;;
72649;SDS011;61467;50.674;4.618;2022-11-14T04:38:13;9.43;;;4.68;;
72649;SDS011;61467;50.674;4.618;2022-11-14T04:40:39;9.45;;;4.28;;
72649;SDS011;61467;50.674;4.618;2022-11-14T04:43:06;9.93;;;4.72;;
72649;SDS011;61467;50.674;4.618;2022-11-14T04:45:32;9.45;;;4.63;;
72649;SDS011;61467;50.674;4.618;2022-11-14T04:47:59;9.60;;;4.33;;
72649;SDS011;61467;50.674;4.618;2022-11-14T04:50:26;9.73;;;4.50;;
72649;SDS011;61467;50.674;4.618;2022-11-14T04:52:54;9.43;;;4.53;;
72649;SDS011;61467;50.674;4.618;2022-11-14T04:55:22;11.15;;;4.72;;
72649;SDS011;61467;50.674;4.618;2022-11-14T04:57:52;9.90;;;4.60;;
72649;SDS011;61467;50.674;4.618;2022-11-14T05:00:20;10.10;;;4.90;;
72649;SDS011;61467;50.674;4.618;2022-11-14T05:02:47;9.75;;;4.82;;
72649;SDS011;61467;50.674;4.618;2022-11-14T05:05:14;8.85;;;4.40;;
72649;SDS011;61467;50.674;4.618;2022-11-14T05:07:41;9.32;;;4.88;;
72649;SDS011;61467;50.674;4.618;2022-11-14T05:10:08;12.18;;;5.28;;
72649;SDS011;61467;50.674;4.618;2022-11-14T05:12:36;8.50;;;4.60;;
72649;SDS011;61467;50.674;4.618;2022-11-14T05:15:03;10.35;;;4.45;;
72649;SDS011;61467;50.674;4.618;2022-11-14T05:17:30;10.57;;;4.65;;
72649;SDS011;61467;50.674;4.618;2022-11-14T05:19:57;9.70;;;5.13;;
72649;SDS011;61467;50.674;4.618;2022-11-14T05:22:23;9.73;;;4.40;;
72649;SDS011;61467;50.674;4.618;2022-11-14T05:24:50;10.00;;;4.77;;
72649;SDS011;61467;50.674;4.618;2022-11-14T05:27:16;11.32;;;5.32;;
72649;SDS011;61467;50.674;4.618;2022-11-14T05:29:44;9.57;;;5.00;;
72649;SDS011;61467;50.674;4.618;2022-11-14T05:32:11;10.02;;;4.82;;
72649;SDS011;61467;50.674;4.618;2022-11-14T05:34:38;8.52;;;4.95;;
72649;SDS011;61467;50.674;4.618;2022-11-14T05:37:04;8.57;;;5.03;;
72649;SDS011;61467;50.674;4.618;2022-11-14T05:39:32;9.02;;;4.70;;
72649;SDS011;61467;50.674;4.618;2022-11-14T05:41:59;8.55;;;4.78;;
72649;SDS011;61467;50.674;4.618;2022-11-14T05:44:25;11.07;;;5.32;;
72649;SDS011;61467;50.674;4.618;2022-11-14T05:46:53;9.45;;;5.32;;
72649;SDS011;61467;50.674;4.618;2022-11-14T05:49:20;10.83;;;6.23;;
72649;SDS011;61467;50.674;4.618;2022-11-14T05:51:48;13.30;;;6.97;;
72649;SDS011;61467;50.674;4.618;2022-11-14T05:54:14;14.68;;;7.18;;
72649;SDS011;61467;50.674;4.618;2022-11-14T05:56:41;13.50;;;6.72;;
72649;SDS011;61467;50.674;4.618;2022-11-14T05:59:08;14.43;;;7.25;;
72649;SDS011;61467;50.674;4.618;2022-11-14T06:01:34;13.83;;;6.47;;
72649;SDS011;61467;50.674;4.618;2022-11-14T06:04:04;12.05;;;6.60;;
72649;SDS011;61467;50.674;4.618;2022-11-14T06:06:31;11.68;;;6.35;;
72649;SDS011;61467;50.674;4.618;2022-11-14T06:08:58;11.75;;;6.15;;
72649;SDS011;61467;50.674;4.618;2022-11-14T06:11:24;12.65;;;6.28;;
72649;SDS011;61467;50.674;4.618;2022-11-14T06:13:51;11.67;;;5.70;;
72649;SDS011;61467;50.674;4.618;2022-11-14T06:16:18;11.18;;;5.65;;
72649;SDS011;61467;50.674;4.618;2022-11-14T06:18:45;12.88;;;6.10;;
72649;SDS011;61467;50.674;4.618;2022-11-14T06:21:14;11.48;;;5.88;;
72649;SDS011;61467;50.674;4.618;2022-11-14T06:23:42;12.40;;;5.63;;
72649;SDS011;61467;50.674;4.618;2022-11-14T06:26:11;12.13;;;5.37;;
72649;SDS011;61467;50.674;4.618;2022-11-14T06:28:45;12.45;;;5.72;;
72649;SDS011;61467;50.674;4.618;2022-11-14T06:31:13;9.93;;;5.40;;
72649;SDS011;61467;50.674;4.618;2022-11-14T06:33:40;9.70;;;5.38;;
72649;SDS011;61467;50.674;4.618;2022-11-14T06:36:08;10.52;;;5.63;;
72649;SDS011;61467;50.674;4.618;2022-11-14T06:38:37;11.03;;;5.53;;
72649;SDS011;61467;50.674;4.618;2022-11-14T06:41:06;13.05;;;5.57;;
72649;SDS011;61467;50.674;4.618;2022-11-14T06:43:33;10.35;;;4.88;;
72649;SDS011;61467;50.674;4.618;2022-11-14T06:46:01;10.52;;;4.88;;
72649;SDS011;61467;50.674;4.618;2022-11-14T06:48:29;11.90;;;5.78;;
72649;SDS011;61467;50.674;4.618;2022-11-14T06:50:56;11.17;;;5.43;;
72649;SDS011;61467;50.674;4.618;2022-11-14T06:53:24;10.98;;;5.43;;
72649;SDS011;61467;50.674;4.618;2022-11-14T06:55:54;11.90;;;5.85;;
72649;SDS011;61467;50.674;4.618;2022-11-14T06:58:23;10.63;;;5.72;;
72649;SDS011;61467;50.674;4.618;2022-11-14T07:00:51;12.32;;;5.95;;
72649;SDS011;61467;50.674;4.618;2022-11-14T07:03:17;10.70;;;5.30;;
72649;SDS011;61467;50.674;4.618;2022-11-14T07:05:45;12.05;;;5.93;;
72649;SDS011;61467;50.674;4.618;2022-11-14T07:08:12;10.65;;;5.72;;
72649;SDS011;61467;50.674;4.618;2022-11-14T07:10:39;12.38;;;5.47;;
72649;SDS011;61467;50.674;4.618;2022-11-14T07:13:07;11.45;;;6.07;;
72649;SDS011;61467;50.674;4.618;2022-11-14T07:15:35;14.47;;;6.17;;
72649;SDS011;61467;50.674;4.618;2022-11-14T07:18:02;12.18;;;5.93;;
72649;SDS011;61467;50.674;4.618;2022-11-14T07:20:29;11.98;;;5.90;;
72649;SDS011;61467;50.674;4.618;2022-11-14T07:22:56;11.80;;;6.00;;
72649;SDS011;61467;50.674;4.618;2022-11-14T07:25:22;12.68;;;6.15;;
72649;SDS011;61467;50.674;4.618;2022-11-14T07:27:49;12.13;;;5.63;;
72649;SDS011;61467;50.674;4.618;2022-11-14T07:30:17;10.13;;;5.32;;
72649;SDS011;61467;50.674;4.618;2022-11-14T07:32:44;9.75;;;5.45;;
72649;SDS011;61467;50.674;4.618;2022-11-14T07:35:11;12.52;;;6.28;;
72649;SDS011;61467;50.674;4.618;2022-11-14T07:37:37;10.60;;;5.60;;
72649;SDS011;61467;50.674;4.618;2022-11-14T07:40:04;10.77;;;5.40;;
72649;SDS011;61467;50.674;4.618;2022-11-14T07:42:34;15.45;;;6.25;;
72649;SDS011;61467;50.674;4.618;2022-11-14T07:45:01;14.75;;;6.00;;
72649;SDS011;61467;50.674;4.618;2022-11-14T07:47:29;11.88;;;6.32;;
72649;SDS011;61467;50.674;4.618;2022-11-14T07:49:55;14.23;;;6.07;;
72649;SDS011;61467;50.674;4.618;2022-11-14T07:52:22;12.27;;;6.30;;
72649;SDS011;61467;50.674;4.618;2022-11-14T07:54:49;12.43;;;6.10;;
72649;SDS011;61467;50.674;4.618;2022-11-14T07:57:15;10.52;;;5.50;;
72649;SDS011;61467;50.674;4.618;2022-11-14T07:59:42;13.00;;;6.07;;
72649;SDS011;61467;50.674;4.618;2022-11-14T08:02:10;11.70;;;6.18;;
72649;SDS011;61467;50.674;4.618;2022-11-14T08:04:40;12.17;;;6.63;;
72649;SDS011;61467;50.674;4.618;2022-11-14T08:07:07;13.57;;;7.28;;
72649;SDS011;61467;50.674;4.618;2022-11-14T08:09:34;12.95;;;6.60;;
72649;SDS011;61467;50.674;4.618;2022-11-14T08:12:01;13.05;;;6.75;;
72649;SDS011;61467;50.674;4.618;2022-11-14T08:14:27;13.85;;;6.78;;
72649;SDS011;61467;50.674;4.618;2022-11-14T08:16:54;13.20;;;7.07;;
72649;SDS011;61467;50.674;4.618;2022-11-14T08:19:21;13.68;;;6.60;;
72649;SDS011;61467;50.674;4.618;2022-11-14T08:21:48;12.48;;;6.65;;
72649;SDS011;61467;50.674;4.618;2022-11-14T08:24:15;13.60;;;7.68;;
72649;SDS011;61467;50.674;4.618;2022-11-14T08:26:42;13.75;;;6.75;;
72649;SDS011;61467;50.674;4.618;2022-11-14T08:29:08;12.60;;;6.90;;
72649;SDS011;61467;50.674;4.618;2022-11-14T08:31:35;15.88;;;6.80;;
72649;SDS011;61467;50.674;4.618;2022-11-14T08:34:02;14.73;;;7.07;;
72649;SDS011;61467;50.674;4.618;2022-11-14T08:36:28;11.45;;;5.90;;
72649;SDS011;61467;50.674;4.618;2022-11-14T08:38:56;15.07;;;7.50;;
72649;SDS011;61467;50.674;4.618;2022-11-14T08:41:23;15.40;;;6.60;;
72649;SDS011;61467;50.674;4.618;2022-11-14T08:43:50;14.25;;;6.93;;
72649;SDS011;61467;50.674;4.618;2022-11-14T08:46:16;14.45;;;6.50;;
72649;SDS011;61467;50.674;4.618;2022-11-14T08:48:43;13.50;;;7.53;;
72649;SDS011;61467;50.674;4.618;2022-11-14T08:51:09;14.50;;;7.22;;
72649;SDS011;61467;50.674;4.618;2022-11-14T08:53:36;13.50;;;6.97;;
72649;SDS011;61467;50.674;4.618;2022-11-14T08:56:04;13.68;;;7.72;;
72649;SDS011;61467;50.674;4.618;2022-11-14T08:58:32;13.65;;;8.13;;
72649;SDS011;61467;50.674;4.618;2022-11-14T09:00:59;16.40;;;7.57;;
72649;SDS011;61467;50.674;4.618;2022-11-14T09:03:26;13.98;;;7.55;;
72649;SDS011;61467;50.674;4.618;2022-11-14T09:05:53;15.30;;;7.60;;
72649;SDS011;61467;50.674;4.618;2022-11-14T09:08:19;15.20;;;7.43;;
72649;SDS011;61467;50.674;4.618;2022-11-14T09:10:46;13.88;;;8.15;;
72649;SDS011;61467;50.674;4.618;2022-11-14T09:13:15;15.00;;;8.30;;
72649;SDS011;61467;50.674;4.618;2022-11-14T09:15:41;15.88;;;8.82;;
72649;SDS011;61467;50.674;4.618;2022-11-14T09:18:08;13.30;;;8.77;;
72649;SDS011;61467;50.674;4.618;2022-11-14T09:20:36;16.05;;;8.60;;
72649;SDS011;61467;50.674;4.618;2022-11-14T09:23:03;16.10;;;8.93;;
72649;SDS011;61467;50.674;4.618;2022-11-14T09:25:30;16.08;;;8.52;;
72649;SDS011;61467;50.674;4.618;2022-11-14T09:27:56;17.10;;;8.63;;
72649;SDS011;61467;50.674;4.618;2022-11-14T09:30:24;16.37;;;8.10;;
72649;SDS011;61467;50.674;4.618;2022-11-14T09:32:51;16.73;;;8.85;;
72649;SDS011;61467;50.674;4.618;2022-11-14T09:35:18;13.50;;;7.78;;
72649;SDS011;61467;50.674;4.618;2022-11-14T09:37:44;16.27;;;7.68;;
72649;SDS011;61467;50.674;4.618;2022-11-14T09:40:11;15.38;;;8.55;;
72649;SDS011;61467;50.674;4.618;2022-11-14T09:42:44;14.13;;;8.40;;
72649;SDS011;61467;50.674;4.618;2022-11-14T09:45:26;16.17;;;7.72;;
72649;SDS011;61467;50.674;4.618;2022-11-14T09:47:54;13.20;;;7.68;;
72649;SDS011;61467;50.674;4.618;2022-11-14T09:50:31;13.20;;;7.82;;
72649;SDS011;61467;50.674;4.618;2022-11-14T09:53:02;15.82;;;8.48;;
72649;SDS011;61467;50.674;4.618;2022-11-14T09:55:34;16.13;;;8.50;;
72649;SDS011;61467;50.674;4.618;2022-11-14T09:58:01;15.95;;;8.43;;
72649;SDS011;61467;50.674;4.618;2022-11-14T10:00:34;17.95;;;9.15;;
72649;SDS011;61467;50.674;4.618;2022-11-14T10:03:10;18.55;;;9.50;;
72649;SDS011;61467;50.674;4.618;2022-11-14T10:08:37;16.00;;;9.50;;
72649;SDS011;61467;50.674;4.618;2022-11-14T10:11:13;19.98;;;10.73;;
72649;SDS011;61467;50.674;4.618;2022-11-14T10:13:49;19.30;;;10.07;;
72649;SDS011;61467;50.674;4.618;2022-11-14T10:16:30;16.65;;;9.27;;
72649;SDS011;61467;50.674;4.618;2022-11-14T10:19:10;18.90;;;9.57;;
72649;SDS011;61467;50.674;4.618;2022-11-14T10:21:51;19.77;;;10.70;;
72649;SDS011;61467;50.674;4.618;2022-11-14T10:24:37;18.20;;;9.73;;
72649;SDS011;61467;50.674;4.618;2022-11-14T10:27:13;17.10;;;9.60;;
72649;SDS011;61467;50.674;4.618;2022-11-14T10:29:48;20.27;;;9.77;;
72649;SDS011;61467;50.674;4.618;2022-11-14T10:32:27;18.17;;;9.70;;
72649;SDS011;61467;50.674;4.618;2022-11-14T10:35:18;20.83;;;10.17;;
72649;SDS011;61467;50.674;4.618;2022-11-14T10:37:50;20.48;;;10.65;;
72649;SDS011;61467;50.674;4.618;2022-11-14T10:40:23;17.98;;;10.23;;
72649;SDS011;61467;50.674;4.618;2022-11-14T10:42:53;20.75;;;9.60;;
72649;SDS011;61467;50.674;4.618;2022-11-14T10:45:23;18.08;;;8.70;;
72649;SDS011;61467;50.674;4.618;2022-11-14T10:47:55;19.30;;;9.07;;
72649;SDS011;61467;50.674;4.618;2022-11-14T10:50:26;17.20;;;8.63;;
72649;SDS011;61467;50.674;4.618;2022-11-14T10:52:59;18.00;;;8.85;;
72649;SDS011;61467;50.674;4.618;2022-11-14T10:55:35;21.30;;;9.50;;
72649;SDS011;61467;50.674;4.618;2022-11-14T10:58:06;21.88;;;9.73;;
72649;SDS011;61467;50.674;4.618;2022-11-14T11:00:35;19.37;;;9.23;;
72649;SDS011;61467;50.674;4.618;2022-11-14T11:03:03;20.45;;;9.25;;
72649;SDS011;61467;50.674;4.618;2022-11-14T11:05:31;19.77;;;9.02;;
72649;SDS011;61467;50.674;4.618;2022-11-14T11:08:11;19.83;;;10.20;;
72649;SDS011;61467;50.674;4.618;2022-11-14T11:10:56;22.83;;;10.50;;
72649;SDS011;61467;50.674;4.618;2022-11-14T11:13:47;20.67;;;9.70;;
72649;SDS011;61467;50.674;4.618;2022-11-14T11:16:21;21.58;;;10.50;;
72649;SDS011;61467;50.674;4.618;2022-11-14T11:18:51;22.05;;;10.63;;
72649;SDS011;61467;50.674;4.618;2022-11-14T11:21:18;24.17;;;11.93;;
72649;SDS011;61467;50.674;4.618;2022-11-14T11:23:47;26.63;;;13.25;;
72649;SDS011;61467;50.674;4.618;2022-11-14T11:26:16;24.77;;;12.50;;
72649;SDS011;61467;50.674;4.618;2022-11-14T11:31:48;22.10;;;12.55;;
72649;SDS011;61467;50.674;4.618;2022-11-14T11:34:21;25.95;;;12.60;;
72649;SDS011;61467;50.674;4.618;2022-11-14T11:36:50;26.60;;;13.93;;
72649;SDS011;61467;50.674;4.618;2022-11-14T11:39:22;23.33;;;13.30;;
72649;SDS011;61467;50.674;4.618;2022-11-14T11:41:53;26.35;;;13.95;;
72649;SDS011;61467;50.674;4.618;2022-11-14T11:44:22;27.67;;;14.00;;
72649;SDS011;61467;50.674;4.618;2022-11-14T11:46:59;27.08;;;15.18;;
72649;SDS011;61467;50.674;4.618;2022-11-14T11:49:33;29.90;;;16.05;;
72649;SDS011;61467;50.674;4.618;2022-11-14T11:52:05;29.50;;;15.20;;
72649;SDS011;61467;50.674;4.618;2022-11-14T11:54:42;32.47;;;16.27;;
72649;SDS011;61467;50.674;4.618;2022-11-14T11:57:17;28.40;;;15.68;;
72649;SDS011;61467;50.674;4.618;2022-11-14T11:59:48;27.90;;;14.77;;
72649;SDS011;61467;50.674;4.618;2022-11-14T12:02:20;26.73;;;14.80;;
72649;SDS011;61467;50.674;4.618;2022-11-14T12:04:49;27.87;;;13.80;;
72649;SDS011;61467;50.674;4.618;2022-11-14T12:07:18;28.50;;;14.35;;
72649;SDS011;61467;50.674;4.618;2022-11-14T12:09:46;26.88;;;14.07;;
72649;SDS011;61467;50.674;4.618;2022-11-14T12:12:16;26.45;;;14.43;;
72649;SDS011;61467;50.674;4.618;2022-11-14T12:14:54;28.83;;;14.95;;
72649;SDS011;61467;50.674;4.618;2022-11-14T12:17:43;24.67;;;13.37;;
72649;SDS011;61467;50.674;4.618;2022-11-14T12:20:33;25.05;;;13.50;;
72649;SDS011;61467;50.674;4.618;2022-11-14T12:23:46;27.95;;;14.13;;
72649;SDS011;61467;50.674;4.618;2022-11-14T12:26:56;28.92;;;14.77;;
72649;SDS011;61467;50.674;4.618;2022-11-14T12:29:44;25.20;;;13.02;;
72649;SDS011;61467;50.674;4.618;2022-11-14T12:32:23;23.90;;;12.43;;
72649;SDS011;61467;50.674;4.618;2022-11-14T12:34:56;25.40;;;14.10;;
72649;SDS011;61467;50.674;4.618;2022-11-14T12:37:27;27.25;;;13.75;;
72649;SDS011;61467;50.674;4.618;2022-11-14T12:39:58;28.52;;;14.88;;
72649;SDS011;61467;50.674;4.618;2022-11-14T12:42:27;29.42;;;15.52;;
72649;SDS011;61467;50.674;4.618;2022-11-14T12:44:53;28.93;;;16.33;;
72649;SDS011;61467;50.674;4.618;2022-11-14T12:47:21;31.30;;;16.55;;
72649;SDS011;61467;50.674;4.618;2022-11-14T12:50:01;28.00;;;15.10;;
72649;SDS011;61467;50.674;4.618;2022-11-14T12:52:46;29.55;;;15.55;;
72649;SDS011;61467;50.674;4.618;2022-11-14T12:58:33;29.53;;;15.50;;
72649;SDS011;61467;50.674;4.618;2022-11-14T13:01:19;28.65;;;14.60;;
72649;SDS011;61467;50.674;4.618;2022-11-14T13:04:00;27.17;;;15.27;;
72649;SDS011;61467;50.674;4.618;2022-11-14T13:06:38;28.98;;;14.55;;
72649;SDS011;61467;50.674;4.618;2022-11-14T13:09:20;24.10;;;12.98;;
72649;SDS011;61467;50.674;4.618;2022-11-14T13:11:55;28.13;;;14.00;;
72649;SDS011;61467;50.674;4.618;2022-11-14T13:14:47;27.67;;;15.02;;
72649;SDS011;61467;50.674;4.618;2022-11-14T13:17:32;27.15;;;13.98;;
72649;SDS011;61467;50.674;4.618;2022-11-14T13:20:24;29.15;;;15.57;;
72649;SDS011;61467;50.674;4.618;2022-11-14T13:35:18;22.13;;;11.02;;
72649;SDS011;61467;50.674;4.618;2022-11-14T13:37:55;24.77;;;12.48;;
72649;SDS011;61467;50.674;4.618;2022-11-14T13:40:35;24.00;;;12.00;;
72649;SDS011;61467;50.674;4.618;2022-11-14T13:43:11;23.73;;;12.07;;
72649;SDS011;61467;50.674;4.618;2022-11-14T13:45:47;24.20;;;11.40;;
72649;SDS011;61467;50.674;4.618;2022-11-14T13:48:27;24.60;;;12.13;;
72649;SDS011;61467;50.674;4.618;2022-11-14T13:51:14;22.00;;;11.77;;
72649;SDS011;61467;50.674;4.618;2022-11-14T13:53:42;23.80;;;11.23;;
72649;SDS011;61467;50.674;4.618;2022-11-14T13:56:12;22.02;;;10.93;;
72649;SDS011;61467;50.674;4.618;2022-11-14T13:58:57;22.98;;;11.90;;
72649;SDS011;61467;50.674;4.618;2022-11-14T14:01:41;24.40;;;11.75;;
72649;SDS011;61467;50.674;4.618;2022-11-14T14:04:20;22.63;;;11.43;;
72649;SDS011;61467;50.674;4.618;2022-11-14T14:06:59;23.90;;;11.17;;
72649;SDS011;61467;50.674;4.618;2022-11-14T14:09:34;22.02;;;11.13;;
72649;SDS011;61467;50.674;4.618;2022-11-14T14:12:10;21.85;;;12.13;;
72649;SDS011;61467;50.674;4.618;2022-11-14T14:17:44;20.23;;;10.95;;
72649;SDS011;61467;50.674;4.618;2022-11-14T14:20:24;23.73;;;11.67;;
72649;SDS011;61467;50.674;4.618;2022-11-14T14:23:03;22.88;;;11.98;;
72649;SDS011;61467;50.674;4.618;2022-11-14T14:25:44;24.02;;;11.65;;
72649;SDS011;61467;50.674;4.618;2022-11-14T14:28:21;23.05;;;11.52;;
72649;SDS011;61467;50.674;4.618;2022-11-14T14:31:07;21.25;;;11.90;;
72649;SDS011;61467;50.674;4.618;2022-11-14T14:33:40;21.53;;;11.07;;
72649;SDS011;61467;50.674;4.618;2022-11-14T14:36:15;23.90;;;11.80;;
72649;SDS011;61467;50.674;4.618;2022-11-14T14:38:44;23.00;;;11.57;;
72649;SDS011;61467;50.674;4.618;2022-11-14T14:41:11;22.55;;;11.07;;
72649;SDS011;61467;50.674;4.618;2022-11-14T14:43:40;20.80;;;11.27;;
72649;SDS011;61467;50.674;4.618;2022-11-14T14:46:10;22.03;;;11.13;;
72649;SDS011;61467;50.674;4.618;2022-11-14T14:48:38;22.88;;;11.88;;
72649;SDS011;61467;50.674;4.618;2022-11-14T14:51:09;23.02;;;11.73;;
72649;SDS011;61467;50.674;4.618;2022-11-14T14:53:39;22.77;;;11.75;;
72649;SDS011;61467;50.674;4.618;2022-11-14T14:56:17;25.65;;;11.13;;
72649;SDS011;61467;50.674;4.618;2022-11-14T14:58:46;27.73;;;14.50;;
72649;SDS011;61467;50.674;4.618;2022-11-14T15:01:15;25.73;;;12.63;;
72649;SDS011;61467;50.674;4.618;2022-11-14T15:03:43;29.83;;;14.90;;
72649;SDS011;61467;50.674;4.618;2022-11-14T15:06:20;22.80;;;12.45;;
72649;SDS011;61467;50.674;4.618;2022-11-14T15:08:54;24.55;;;11.93;;
72649;SDS011;61467;50.674;4.618;2022-11-14T15:11:22;22.87;;;11.17;;
72649;SDS011;61467;50.674;4.618;2022-11-14T15:13:52;22.48;;;11.00;;